createdAt,value
2022-11-23T00:02:54.324Z,2.40
2022-11-23T00:05:57.039Z,2.60
2022-11-23T00:08:59.999Z,2.67
2022-11-23T00:12:03.483Z,2.57
2022-11-23T00:15:07.373Z,2.70
2022-11-23T00:18:11.429Z,2.90
2022-11-23T00:21:16.147Z,2.90
2022-11-23T00:24:19.180Z,2.67
2022-11-23T00:27:22.043Z,2.47
2022-11-23T00:30:24.741Z,2.10
2022-11-23T00:33:28.847Z,2.40
2022-11-23T00:36:31.570Z,2.53
2022-11-23T00:39:34.402Z,2.57
2022-11-23T00:42:38.334Z,2.50
2022-11-23T00:45:41.201Z,2.57
2022-11-23T00:48:46.604Z,2.50
2022-11-23T00:51:49.412Z,2.47
2022-11-23T00:54:52.145Z,2.53
2022-11-23T00:57:54.835Z,2.80
2022-11-23T01:01:06.327Z,2.70
2022-11-23T01:04:10.670Z,2.50
2022-11-23T01:07:13.446Z,2.43
2022-11-23T01:10:16.390Z,2.73
2022-11-23T01:13:19.084Z,2.40
2022-11-23T01:16:24.543Z,2.67
2022-11-23T01:19:30.623Z,2.20
2022-11-23T01:22:33.619Z,3.30
2022-11-23T01:25:37.363Z,3.03
2022-11-23T01:28:41.324Z,3.60
2022-11-23T01:31:46.836Z,3.83
2022-11-23T01:34:51.148Z,3.77
2022-11-23T01:37:53.859Z,4.40
2022-11-23T01:40:56.617Z,4.03
2022-11-23T01:43:59.463Z,4.40
2022-11-23T01:47:03.822Z,4.30
2022-11-23T01:50:08.773Z,2.77
2022-11-23T01:53:11.488Z,4.00
2022-11-23T01:56:17.598Z,3.97
2022-11-23T01:59:21.672Z,3.33
2022-11-23T02:02:26.611Z,3.10
2022-11-23T02:05:34.811Z,2.63
2022-11-23T02:08:37.651Z,2.60
2022-11-23T02:11:40.388Z,2.80
2022-11-23T02:14:43.858Z,2.60
2022-11-23T02:17:47.550Z,2.63
2022-11-23T02:20:52.325Z,2.93
2022-11-23T02:24:03.207Z,2.70
2022-11-23T02:27:07.947Z,2.80
2022-11-23T02:30:12.358Z,2.60
2022-11-23T02:33:15.107Z,2.60
2022-11-23T02:36:38.314Z,2.70
2022-11-23T02:39:47.107Z,2.50
2022-11-23T02:42:51.620Z,3.37
2022-11-23T02:45:57.433Z,2.40
2022-11-23T02:49:00.130Z,2.37
2022-11-23T02:52:05.004Z,3.10
2022-11-23T02:55:08.132Z,2.73
2022-11-23T02:58:12.652Z,3.63
2022-11-23T03:01:15.389Z,2.73
2022-11-23T03:04:21.870Z,3.00
2022-11-23T03:07:28.720Z,2.50
2022-11-23T03:10:31.510Z,2.67
2022-11-23T03:13:35.652Z,2.70
2022-11-23T03:16:38.552Z,2.30
2022-11-23T03:19:41.788Z,2.47
2022-11-23T03:22:44.621Z,2.40
2022-11-23T03:25:56.489Z,2.50
2022-11-23T03:29:00.513Z,3.20
2022-11-23T03:32:04.324Z,3.30
2022-11-23T03:35:08.746Z,2.67
2022-11-23T03:38:11.704Z,2.60
2022-11-23T03:41:14.380Z,2.60
2022-11-23T03:44:18.506Z,2.23
2022-11-23T03:47:21.204Z,2.40
2022-11-23T03:50:24.159Z,3.00
2022-11-23T03:53:26.939Z,3.33
2022-11-23T03:56:29.687Z,3.60
2022-11-23T03:59:34.038Z,3.07
2022-11-23T04:02:37.028Z,2.70
2022-11-23T04:05:39.764Z,2.70
2022-11-23T04:08:42.464Z,3.07
2022-11-23T04:11:45.178Z,3.67
2022-11-23T04:14:49.247Z,3.80
2022-11-23T04:17:51.981Z,4.73
2022-11-23T04:20:54.870Z,4.27
2022-11-23T04:23:57.551Z,4.03
2022-11-23T04:27:00.615Z,3.40
2022-11-23T04:30:05.362Z,3.10
2022-11-23T04:33:08.184Z,2.40
2022-11-23T04:36:11.041Z,3.13
2022-11-23T04:39:14.216Z,3.00
2022-11-23T04:42:16.910Z,4.43
2022-11-23T04:45:21.025Z,3.90
2022-11-23T04:48:23.999Z,4.10
2022-11-23T04:51:26.702Z,4.10
2022-11-23T04:54:29.608Z,3.40
2022-11-23T04:57:32.356Z,4.47
2022-11-23T05:00:36.586Z,4.33
2022-11-23T05:03:39.276Z,3.80
2022-11-23T05:06:41.918Z,3.80
2022-11-23T05:09:44.830Z,3.20
2022-11-23T05:12:47.524Z,4.43
2022-11-23T05:15:51.642Z,3.70
2022-11-23T05:18:54.359Z,5.07
2022-11-23T05:21:57.060Z,4.27
2022-11-23T05:24:59.791Z,4.27
2022-11-23T05:28:16.660Z,4.20
2022-11-23T05:31:27.318Z,3.80
2022-11-23T05:34:30.011Z,5.00
2022-11-23T05:37:34.396Z,5.40
2022-11-23T05:40:37.180Z,4.47
2022-11-23T05:43:39.862Z,3.60
2022-11-23T05:46:43.956Z,3.97
2022-11-23T05:49:46.640Z,3.70
2022-11-23T05:52:49.380Z,3.93
2022-11-23T05:55:52.066Z,5.13
2022-11-23T05:58:56.198Z,4.30
2022-11-23T06:02:00.252Z,6.17
2022-11-23T06:05:03.651Z,4.87
2022-11-23T06:08:06.623Z,4.57
2022-11-23T06:11:09.472Z,4.37
2022-11-23T06:14:14.501Z,4.20
2022-11-23T06:17:19.098Z,2.63
2022-11-23T06:20:21.807Z,2.87
2022-11-23T06:23:25.010Z,4.00
2022-11-23T06:26:27.703Z,3.50
2022-11-23T06:29:31.271Z,11.70
2022-11-23T06:32:35.567Z,14.07
2022-11-23T06:35:38.759Z,7.67
2022-11-23T06:38:41.468Z,5.47
2022-11-23T06:41:44.637Z,7.63
2022-11-23T06:44:47.327Z,8.20
2022-11-23T06:47:51.421Z,8.53
2022-11-23T06:50:54.684Z,8.13
2022-11-23T06:53:57.379Z,6.63
2022-11-23T06:57:00.079Z,7.60
2022-11-23T07:00:03.916Z,6.03
2022-11-23T07:03:08.268Z,5.00
2022-11-23T07:06:11.926Z,5.73
2022-11-23T07:09:14.699Z,7.00
2022-11-23T07:12:17.406Z,9.17
2022-11-23T07:15:20.142Z,8.10
2022-11-23T07:18:24.198Z,5.90
2022-11-23T07:21:26.957Z,5.40
2022-11-23T07:24:37.935Z,5.60
2022-11-23T07:27:42.530Z,8.30
2022-11-23T07:30:45.352Z,10.33
2022-11-23T07:33:50.205Z,12.10
2022-11-23T07:36:52.926Z,6.67
2022-11-23T07:39:57.942Z,6.33
2022-11-23T07:43:01.732Z,6.50
2022-11-23T07:46:04.498Z,4.40
2022-11-23T07:49:08.772Z,5.40
2022-11-23T07:52:11.668Z,6.03
2022-11-23T07:55:14.394Z,6.63
2022-11-23T07:58:17.187Z,5.43
2022-11-23T08:01:20.906Z,3.60
2022-11-23T08:04:26.755Z,5.67
2022-11-23T08:07:29.618Z,4.97
2022-11-23T08:10:38.760Z,5.73
2022-11-23T08:13:44.717Z,4.37
2022-11-23T08:16:49.980Z,4.77
2022-11-23T08:19:54.083Z,6.20
2022-11-23T08:22:57.271Z,6.83
2022-11-23T08:26:00.027Z,6.87
2022-11-23T08:29:03.609Z,4.63
2022-11-23T08:32:06.633Z,5.87
2022-11-23T08:35:10.838Z,6.90
2022-11-23T08:38:13.924Z,5.30
2022-11-23T08:41:18.123Z,5.90
2022-11-23T08:44:20.864Z,6.30
2022-11-23T08:47:23.589Z,5.40
2022-11-23T08:50:29.260Z,5.83
2022-11-23T08:53:32.033Z,4.10
2022-11-23T08:56:34.736Z,4.47
2022-11-23T08:59:37.453Z,4.00
2022-11-23T09:02:40.162Z,3.87
2022-11-23T09:05:44.164Z,4.23
2022-11-23T09:08:47.050Z,4.53
2022-11-23T09:11:49.873Z,4.93
2022-11-23T09:14:53.911Z,4.23
2022-11-23T09:17:57.680Z,2.97
2022-11-23T09:21:03.564Z,3.00
2022-11-23T09:24:06.846Z,3.03
2022-11-23T09:27:09.609Z,2.57
2022-11-23T09:30:13.669Z,3.07
2022-11-23T09:33:16.430Z,3.93
2022-11-23T09:36:21.275Z,3.60
2022-11-23T09:39:24.118Z,3.97
2022-11-23T09:42:42.192Z,5.13
2022-11-23T09:45:50.871Z,4.23
2022-11-23T09:49:16.135Z,3.10
2022-11-23T09:52:24.504Z,2.33
2022-11-23T09:55:35.126Z,2.63
2022-11-23T09:58:41.218Z,2.40
2022-11-23T10:01:43.949Z,2.73
2022-11-23T10:04:46.725Z,2.93
2022-11-23T10:08:03.254Z,2.77
2022-11-23T10:11:27.254Z,2.77
2022-11-23T10:14:44.791Z,2.20
2022-11-23T10:18:05.723Z,2.30
2022-11-23T10:21:20.311Z,2.10
2022-11-23T10:24:30.993Z,1.70
2022-11-23T10:27:33.901Z,1.53
2022-11-23T10:30:37.287Z,2.30
2022-11-23T10:33:50.864Z,2.67
2022-11-23T10:36:53.766Z,2.40
2022-11-23T10:39:57.814Z,1.70
2022-11-23T10:43:03.085Z,1.90
2022-11-23T10:46:31.020Z,2.10
2022-11-23T10:49:34.847Z,1.80
2022-11-23T10:52:37.803Z,1.80
2022-11-23T10:55:50.253Z,3.87
2022-11-23T10:58:53.052Z,4.57
2022-11-23T11:02:12.339Z,4.60
2022-11-23T11:05:40.241Z,6.17
2022-11-23T11:08:52.045Z,13.10
2022-11-23T11:11:56.131Z,2.03
2022-11-23T11:15:11.448Z,1.90
2022-11-23T11:18:19.549Z,1.30
2022-11-23T11:21:25.339Z,1.07
2022-11-23T11:24:33.412Z,15.90
2022-11-23T11:27:37.746Z,1.50
2022-11-23T11:30:49.574Z,2.97
2022-11-23T11:33:59.766Z,2.00
2022-11-23T11:37:09.962Z,2.33
2022-11-23T11:40:22.578Z,1.60
2022-11-23T11:43:37.835Z,5.13
2022-11-23T11:46:48.571Z,21.10
2022-11-23T11:49:53.533Z,1.23
2022-11-23T11:53:03.510Z,1.20
2022-11-23T11:56:17.343Z,1.27
2022-11-23T11:59:28.052Z,1.50
2022-11-23T12:02:34.780Z,2.33
2022-11-23T12:05:42.292Z,2.23
2022-11-23T12:08:51.890Z,1.50
2022-11-23T12:11:54.842Z,1.80
2022-11-23T12:14:59.103Z,2.00
2022-11-23T12:18:34.621Z,2.00
2022-11-23T12:21:58.447Z,1.10
2022-11-23T12:25:14.524Z,1.80
2022-11-23T12:28:37.898Z,2.27
2022-11-23T12:31:46.154Z,1.90
2022-11-23T12:35:07.099Z,1.53
2022-11-23T12:38:24.883Z,1.40
2022-11-23T12:41:40.723Z,2.07
2022-11-23T12:44:56.858Z,9.63
2022-11-23T12:48:16.692Z,40.10
2022-11-23T12:51:29.288Z,10.60
2022-11-23T12:54:55.973Z,5.27
2022-11-23T12:58:07.344Z,2.47
2022-11-23T13:01:16.065Z,1.70
2022-11-23T13:04:43.648Z,2.10
2022-11-23T13:08:14.102Z,2.10
2022-11-23T13:11:26.864Z,2.63
2022-11-23T13:14:37.862Z,1.67
2022-11-23T13:17:49.900Z,2.00
2022-11-23T13:21:18.026Z,1.80
2022-11-23T13:24:28.701Z,1.17
2022-11-23T13:27:43.115Z,1.00
2022-11-23T13:31:07.712Z,1.10
2022-11-23T13:34:45.038Z,1.80
2022-11-23T13:38:19.747Z,1.00
2022-11-23T13:42:01.976Z,0.70
2022-11-23T13:45:31.353Z,1.33
2022-11-23T13:48:59.027Z,1.37
2022-11-23T13:52:07.847Z,1.50
2022-11-23T13:55:23.551Z,1.20
2022-11-23T13:58:40.882Z,1.30
2022-11-23T14:02:24.335Z,1.30
2022-11-23T14:05:38.285Z,1.37
2022-11-23T14:08:42.030Z,1.13
2022-11-23T14:11:56.760Z,1.50
2022-11-23T14:15:04.580Z,1.47
2022-11-23T14:18:34.781Z,1.20
2022-11-23T14:21:50.903Z,2.07
2022-11-23T14:25:23.705Z,1.73
2022-11-23T14:28:45.976Z,1.70
2022-11-23T14:32:00.493Z,4.53
2022-11-23T14:35:19.288Z,1.80
2022-11-23T14:38:47.500Z,1.77
2022-11-23T14:41:54.477Z,1.60
2022-11-23T14:45:04.811Z,1.60
2022-11-23T14:48:22.097Z,2.20
2022-11-23T14:51:27.182Z,3.00
2022-11-23T14:54:30.931Z,3.13
2022-11-23T14:57:42.079Z,2.20
2022-11-23T15:00:48.531Z,2.70
2022-11-23T15:03:58.880Z,2.50
2022-11-23T15:07:06.869Z,2.00
2022-11-23T15:10:25.247Z,4.80
2022-11-23T15:13:29.497Z,3.20
2022-11-23T15:16:42.600Z,3.50
2022-11-23T15:19:54.627Z,6.80
2022-11-23T15:22:57.484Z,4.47
2022-11-23T15:26:04.015Z,5.40
2022-11-23T15:29:06.931Z,6.27
2022-11-23T15:32:33.694Z,6.63
2022-11-23T15:35:39.784Z,8.47
2022-11-23T15:38:42.814Z,4.90
2022-11-23T15:41:46.609Z,6.47
2022-11-23T15:44:51.716Z,5.73
2022-11-23T15:48:00.811Z,6.77
2022-11-23T15:51:05.736Z,7.03
2022-11-23T15:54:18.500Z,6.07
2022-11-23T15:57:24.900Z,5.50
2022-11-23T16:00:27.793Z,5.30
2022-11-23T16:03:42.789Z,4.57
2022-11-23T16:06:49.596Z,4.47
2022-11-23T16:10:13.142Z,4.80
2022-11-23T16:13:36.596Z,4.60
2022-11-23T16:16:45.255Z,4.20
2022-11-23T16:19:50.233Z,3.93
2022-11-23T16:22:54.666Z,4.37
2022-11-23T16:26:00.587Z,3.60
2022-11-23T16:29:05.911Z,6.60
2022-11-23T16:32:23.789Z,6.97
2022-11-23T16:35:26.678Z,3.90
2022-11-23T16:38:29.406Z,4.47
2022-11-23T16:41:32.227Z,5.90
2022-11-23T16:44:40.198Z,6.60
2022-11-23T16:47:53.096Z,11.43
2022-11-23T16:50:57.665Z,5.70
2022-11-23T16:54:19.196Z,15.77
2022-11-23T16:57:59.070Z,10.40
2022-11-23T17:01:04.106Z,12.30
2022-11-23T17:04:06.911Z,11.80
2022-11-23T17:07:10.218Z,9.10
2022-11-23T17:10:13.730Z,10.00
2022-11-23T17:13:22.708Z,13.53
2022-11-23T17:16:27.209Z,6.37
2022-11-23T17:19:31.918Z,9.70
2022-11-23T17:22:34.844Z,6.37
2022-11-23T17:25:38.732Z,8.47
2022-11-23T17:28:41.523Z,9.13
2022-11-23T17:31:45.792Z,9.30
2022-11-23T17:34:48.471Z,30.87
2022-11-23T17:37:51.138Z,22.73
2022-11-23T17:40:53.844Z,6.20
2022-11-23T17:43:58.537Z,7.03
2022-11-23T17:47:03.226Z,6.60
2022-11-23T17:50:07.428Z,6.07
2022-11-23T17:53:10.907Z,5.90
2022-11-23T17:56:18.125Z,8.07
2022-11-23T17:59:20.817Z,7.83
2022-11-23T18:02:25.097Z,11.97
2022-11-23T18:05:29.910Z,4.80
2022-11-23T18:08:32.931Z,3.10
2022-11-23T18:11:35.639Z,5.17
2022-11-23T18:14:38.661Z,5.23
2022-11-23T18:17:42.766Z,3.70
2022-11-23T18:20:45.449Z,6.60
2022-11-23T18:23:48.264Z,8.37
2022-11-23T18:26:50.918Z,7.23
2022-11-23T18:29:53.624Z,7.83
2022-11-23T18:32:58.086Z,8.67
2022-11-23T18:36:05.340Z,8.37
2022-11-23T18:39:08.525Z,7.90
2022-11-23T18:42:11.271Z,8.40
2022-11-23T18:45:14.613Z,6.43
2022-11-23T18:48:18.666Z,8.00
2022-11-23T18:51:21.382Z,7.73
2022-11-23T18:54:24.068Z,12.40
2022-11-23T18:57:27.218Z,12.33
2022-11-23T19:00:30.068Z,11.63
2022-11-23T19:03:37.283Z,8.90
2022-11-23T19:06:40.243Z,7.60
2022-11-23T19:09:43.342Z,7.30
2022-11-23T19:12:46.158Z,14.73
2022-11-23T19:15:48.890Z,7.60
2022-11-23T19:18:56.305Z,7.07
2022-11-23T19:21:59.258Z,8.00
2022-11-23T19:25:02.343Z,7.73
2022-11-23T19:28:05.143Z,8.47
2022-11-23T19:31:12.451Z,7.87
2022-11-23T19:34:16.576Z,6.50
2022-11-23T19:37:19.304Z,5.87
2022-11-23T19:40:21.984Z,9.60
2022-11-23T19:43:24.685Z,7.07
2022-11-23T19:46:27.843Z,7.23
2022-11-23T19:49:32.315Z,10.17
2022-11-23T19:53:03.656Z,7.13
2022-11-23T19:56:02.250Z,8.77
2022-11-23T19:59:05.156Z,12.73
2022-11-23T20:02:08.063Z,11.97
2022-11-23T20:05:12.912Z,11.43
2022-11-23T20:08:15.708Z,11.77
2022-11-23T20:11:18.451Z,13.93
2022-11-23T20:14:21.607Z,10.80
2022-11-23T20:17:24.354Z,10.47
2022-11-23T20:20:28.900Z,10.23
2022-11-23T20:23:31.734Z,9.37
2022-11-23T20:26:36.169Z,9.83
2022-11-23T20:29:40.235Z,7.53
2022-11-23T20:32:42.916Z,7.40
2022-11-23T20:35:47.746Z,8.77
2022-11-23T20:38:51.459Z,9.13
2022-11-23T20:41:54.209Z,9.83
2022-11-23T20:44:56.947Z,7.67
2022-11-23T20:47:59.728Z,8.33
2022-11-23T20:51:10.102Z,7.90
2022-11-23T20:54:13.446Z,8.50
2022-11-23T20:57:16.208Z,8.80
2022-11-23T21:00:21.403Z,8.03
2022-11-23T21:03:24.181Z,10.60
2022-11-23T21:06:30.109Z,8.27
2022-11-23T21:09:35.297Z,8.13
2022-11-23T21:12:55.831Z,8.90
2022-11-23T21:16:05.153Z,9.50
2022-11-23T21:19:09.325Z,16.07
2022-11-23T21:22:14.873Z,18.63
2022-11-23T21:25:17.583Z,16.33
2022-11-23T21:28:20.276Z,14.83
2022-11-23T21:31:23.062Z,12.67
2022-11-23T21:34:27.652Z,15.23
2022-11-23T21:37:31.753Z,10.13
2022-11-23T21:40:34.581Z,12.37
2022-11-23T21:43:37.405Z,18.37
2022-11-23T21:46:41.579Z,13.50
2022-11-23T21:49:44.614Z,12.33
2022-11-23T21:52:48.653Z,13.37
2022-11-23T21:55:51.350Z,14.00
2022-11-23T21:58:54.502Z,16.60
2022-11-23T22:01:58.720Z,11.00
2022-11-23T22:05:02.196Z,11.97
2022-11-23T22:08:28.638Z,10.63
2022-11-23T22:11:31.186Z,6.80
2022-11-23T22:14:34.242Z,8.60
2022-11-23T22:17:37.173Z,16.57
2022-11-23T22:20:39.943Z,12.73
2022-11-23T22:23:44.306Z,8.17
2022-11-23T22:26:48.181Z,4.77
2022-11-23T22:29:51.084Z,4.50
2022-11-23T22:32:53.840Z,13.80
2022-11-23T22:36:00.460Z,18.87
2022-11-23T22:39:06.446Z,5.90
2022-11-23T22:42:09.353Z,3.50
2022-11-23T22:45:12.808Z,4.73
2022-11-23T22:48:15.545Z,2.70
2022-11-23T22:51:20.215Z,2.50
2022-11-23T22:54:24.335Z,2.70
2022-11-23T22:57:27.355Z,3.00
2022-11-23T23:00:30.091Z,2.77
2022-11-23T23:03:33.008Z,2.50
2022-11-23T23:06:36.006Z,3.00
2022-11-23T23:09:40.185Z,2.93
2022-11-23T23:12:43.152Z,3.37
2022-11-23T23:15:46.843Z,3.40
2022-11-23T23:18:50.221Z,3.07
2022-11-23T23:21:52.911Z,3.17
2022-11-23T23:24:57.284Z,3.03
2022-11-23T23:28:00.258Z,3.30
2022-11-23T23:31:05.212Z,3.40
2022-11-23T23:34:08.515Z,3.20
2022-11-23T23:37:12.110Z,3.50
2022-11-23T23:40:16.656Z,3.67
2022-11-23T23:43:19.381Z,3.87
2022-11-23T23:46:22.320Z,3.97
2022-11-23T23:49:26.322Z,3.60
2022-11-23T23:52:29.085Z,3.13
2022-11-23T23:55:33.217Z,3.73
2022-11-23T23:58:36.351Z,3.90
